createdAt,value
2017-09-08T00:00:00.297Z,8.10
2017-09-08T00:02:26.915Z,7.20
2017-09-08T00:04:53.530Z,6.60
2017-09-08T00:07:20.185Z,7.40
2017-09-08T00:09:46.869Z,7.50
2017-09-08T00:12:13.506Z,7.40
2017-09-08T00:14:40.131Z,7.60
2017-09-08T00:17:06.750Z,7.47
2017-09-08T00:19:33.383Z,6.93
2017-09-08T00:22:00.018Z,7.67
2017-09-08T00:24:26.654Z,8.17
2017-09-08T00:26:53.307Z,6.97
2017-09-08T00:29:19.922Z,6.03
2017-09-08T00:31:46.536Z,7.80
2017-09-08T00:34:13.163Z,6.63
2017-09-08T00:36:39.806Z,7.40
2017-09-08T00:39:06.419Z,7.37
2017-09-08T00:41:33.058Z,9.47
2017-09-08T00:43:59.668Z,6.50
2017-09-08T00:46:26.283Z,6.30
2017-09-08T00:48:52.919Z,6.70
2017-09-08T00:51:19.560Z,7.97
2017-09-08T00:53:46.187Z,6.87
2017-09-08T00:56:12.810Z,6.43
2017-09-08T00:58:39.432Z,6.63
2017-09-08T01:01:06.100Z,5.43
2017-09-08T01:03:32.709Z,6.43
2017-09-08T01:05:59.340Z,5.70
2017-09-08T01:08:25.970Z,6.40
2017-09-08T01:10:52.595Z,6.10
2017-09-08T01:13:19.227Z,6.17
2017-09-08T01:15:45.855Z,8.10
2017-09-08T01:18:12.509Z,6.70
2017-09-08T01:20:39.126Z,5.77
2017-09-08T01:23:05.763Z,6.63
2017-09-08T01:25:32.382Z,6.27
2017-09-08T01:27:59.035Z,6.17
2017-09-08T01:30:25.638Z,5.87
2017-09-08T01:32:52.252Z,7.67
2017-09-08T01:35:18.882Z,6.20
2017-09-08T01:37:46.629Z,7.07
2017-09-08T01:40:14.372Z,5.67
2017-09-08T01:42:42.172Z,5.20
2017-09-08T01:45:10.182Z,6.80
2017-09-08T01:47:36.801Z,5.93
2017-09-08T01:50:03.446Z,5.20
2017-09-08T01:52:30.094Z,6.57
2017-09-08T01:54:56.717Z,6.37
2017-09-08T01:57:23.334Z,6.10
2017-09-08T01:59:49.974Z,6.37
2017-09-08T02:02:16.612Z,5.60
2017-09-08T02:04:43.241Z,5.30
2017-09-08T02:07:09.896Z,4.63
2017-09-08T02:09:36.497Z,5.47
2017-09-08T02:12:03.143Z,6.73
2017-09-08T02:14:29.801Z,6.40
2017-09-08T02:16:56.411Z,5.60
2017-09-08T02:19:23.071Z,6.23
2017-09-08T02:21:55.374Z,8.23
2017-09-08T02:24:22.011Z,6.50
2017-09-08T02:26:48.656Z,5.20
2017-09-08T02:29:15.292Z,5.43
2017-09-08T02:31:41.935Z,4.70
2017-09-08T02:34:08.565Z,5.67
2017-09-08T02:36:35.211Z,5.23
2017-09-08T02:39:01.831Z,5.97
2017-09-08T02:41:28.466Z,5.70
2017-09-08T02:43:55.063Z,5.80
2017-09-08T02:46:21.687Z,6.17
2017-09-08T02:48:48.343Z,4.70
2017-09-08T02:51:14.930Z,5.67
2017-09-08T02:53:41.542Z,4.43
2017-09-08T02:56:08.167Z,5.80
2017-09-08T02:58:34.803Z,5.73
2017-09-08T03:01:01.438Z,5.30
2017-09-08T03:03:28.099Z,4.47
2017-09-08T03:05:54.715Z,5.40
2017-09-08T03:08:21.332Z,5.30
2017-09-08T03:10:47.967Z,5.20
2017-09-08T03:13:14.590Z,3.93
2017-09-08T03:15:41.210Z,5.73
2017-09-08T03:18:07.866Z,5.30
2017-09-08T03:20:34.487Z,5.23
2017-09-08T03:23:01.091Z,5.03
2017-09-08T03:25:27.731Z,5.80
2017-09-08T03:27:54.366Z,4.87
2017-09-08T03:30:21.000Z,4.50
2017-09-08T03:32:47.615Z,5.57
2017-09-08T03:35:14.242Z,5.20
2017-09-08T03:37:40.878Z,5.13
2017-09-08T03:40:07.496Z,5.23
2017-09-08T03:42:34.113Z,6.07
2017-09-08T03:45:00.738Z,4.70
2017-09-08T03:47:27.347Z,5.63
2017-09-08T03:49:54.349Z,5.60
2017-09-08T03:52:20.954Z,5.50
2017-09-08T03:54:47.574Z,4.87
2017-09-08T03:57:14.195Z,4.63
2017-09-08T03:59:40.815Z,5.33
2017-09-08T04:02:07.494Z,5.53
2017-09-08T04:04:34.108Z,4.60
2017-09-08T04:07:00.734Z,4.97
2017-09-08T04:09:27.374Z,5.10
2017-09-08T04:11:53.999Z,7.70
2017-09-08T04:14:20.618Z,4.47
2017-09-08T04:16:47.241Z,6.10
2017-09-08T04:19:13.866Z,5.37
2017-09-08T04:21:40.508Z,4.93
2017-09-08T04:24:07.114Z,4.57
2017-09-08T04:26:33.741Z,7.37
2017-09-08T04:29:00.380Z,5.67
2017-09-08T04:31:27.008Z,5.47
2017-09-08T04:33:53.617Z,5.03
2017-09-08T04:36:20.253Z,4.47
2017-09-08T04:38:46.920Z,3.97
2017-09-08T04:41:13.540Z,6.00
2017-09-08T04:43:40.197Z,4.83
2017-09-08T04:46:06.815Z,4.60
2017-09-08T04:48:33.423Z,6.20
2017-09-08T04:51:00.057Z,4.87
2017-09-08T04:53:26.716Z,4.53
2017-09-08T04:55:53.312Z,5.30
2017-09-08T04:58:19.922Z,5.10
2017-09-08T05:00:46.590Z,4.80
2017-09-08T05:03:13.227Z,4.87
2017-09-08T05:05:39.874Z,4.97
2017-09-08T05:08:06.483Z,5.07
2017-09-08T05:10:33.094Z,6.00
2017-09-08T05:12:59.728Z,4.80
2017-09-08T05:15:26.400Z,4.53
2017-09-08T05:17:53.014Z,4.30
2017-09-08T05:20:19.653Z,5.40
2017-09-08T05:22:46.294Z,4.73
2017-09-08T05:25:12.914Z,4.10
2017-09-08T05:27:39.553Z,3.60
2017-09-08T05:30:06.163Z,4.43
2017-09-08T05:32:32.812Z,4.27
2017-09-08T05:34:59.430Z,3.97
2017-09-08T05:37:26.055Z,4.33
2017-09-08T05:39:52.682Z,4.03
2017-09-08T05:42:19.306Z,4.53
2017-09-08T05:44:45.970Z,3.73
2017-09-08T05:47:12.588Z,2.80
2017-09-08T05:49:39.227Z,4.20
2017-09-08T05:52:05.841Z,3.90
2017-09-08T05:54:32.454Z,5.70
2017-09-08T05:56:59.088Z,3.40
2017-09-08T05:59:25.685Z,3.40
2017-09-08T06:01:52.320Z,3.90
2017-09-08T06:04:18.961Z,2.77
2017-09-08T06:06:45.597Z,4.83
2017-09-08T06:09:12.194Z,3.33
2017-09-08T06:11:38.931Z,3.43
2017-09-08T06:14:05.559Z,2.97
2017-09-08T06:16:32.202Z,4.50
2017-09-08T06:18:58.808Z,3.33
2017-09-08T06:21:25.461Z,4.03
2017-09-08T06:23:52.114Z,3.00
2017-09-08T06:26:18.727Z,3.17
2017-09-08T06:28:45.351Z,3.50
2017-09-08T06:31:11.983Z,3.07
2017-09-08T06:33:38.615Z,3.53
2017-09-08T06:36:05.230Z,3.70
2017-09-08T06:38:31.870Z,3.30
2017-09-08T06:40:58.488Z,3.23
2017-09-08T06:43:25.123Z,3.40
2017-09-08T06:45:51.763Z,2.53
2017-09-08T06:48:18.366Z,2.80
2017-09-08T06:50:44.991Z,4.50
2017-09-08T06:53:11.627Z,3.73
2017-09-08T06:55:38.257Z,3.10
2017-09-08T06:58:04.880Z,2.77
2017-09-08T07:00:31.506Z,3.40
2017-09-08T07:02:58.183Z,3.60
2017-09-08T07:05:24.814Z,4.30
2017-09-08T07:07:51.442Z,2.60
2017-09-08T07:10:18.068Z,2.73
2017-09-08T07:12:44.683Z,5.23
2017-09-08T07:15:11.339Z,3.13
2017-09-08T07:17:37.968Z,2.60
2017-09-08T07:20:04.567Z,2.30
2017-09-08T07:22:31.211Z,2.70
2017-09-08T07:24:57.826Z,3.20
2017-09-08T07:27:24.442Z,3.90
2017-09-08T07:29:51.074Z,3.30
2017-09-08T07:32:17.697Z,3.30
2017-09-08T07:34:44.327Z,4.07
2017-09-08T07:37:10.947Z,3.30
2017-09-08T07:39:37.570Z,2.80
2017-09-08T07:42:04.190Z,3.97
2017-09-08T07:44:30.834Z,3.83
2017-09-08T07:46:57.469Z,4.13
2017-09-08T07:49:24.089Z,3.20
2017-09-08T07:51:50.727Z,3.37
2017-09-08T07:54:17.347Z,3.03
2017-09-08T07:56:43.975Z,3.20
2017-09-08T07:59:10.595Z,2.97
2017-09-08T08:01:37.218Z,3.43
2017-09-08T08:04:03.831Z,3.60
2017-09-08T08:06:30.445Z,2.90
2017-09-08T08:08:57.874Z,3.73
2017-09-08T08:11:24.531Z,4.07
2017-09-08T08:13:51.175Z,3.80
2017-09-08T08:16:17.792Z,3.57
2017-09-08T08:18:44.415Z,3.93
2017-09-08T08:21:11.085Z,3.40
2017-09-08T08:23:37.699Z,3.37
2017-09-08T08:26:04.357Z,3.30
2017-09-08T08:28:30.956Z,3.73
2017-09-08T08:30:57.672Z,3.80
2017-09-08T08:33:24.275Z,3.43
2017-09-08T08:35:50.919Z,3.67
2017-09-08T08:38:17.542Z,3.80
2017-09-08T08:40:44.172Z,4.23
2017-09-08T08:43:10.795Z,3.83
2017-09-08T08:45:37.450Z,3.20
2017-09-08T08:48:04.094Z,4.37
2017-09-08T08:50:30.718Z,3.33
2017-09-08T08:52:57.356Z,3.47
2017-09-08T08:55:23.999Z,3.40
2017-09-08T08:57:50.638Z,3.60
2017-09-08T09:00:17.275Z,4.40
2017-09-08T09:02:43.902Z,3.20
2017-09-08T09:05:10.534Z,4.23
2017-09-08T09:07:37.147Z,3.63
2017-09-08T09:10:03.822Z,3.30
2017-09-08T09:12:30.446Z,3.03
2017-09-08T09:14:57.064Z,3.50
2017-09-08T09:17:23.730Z,3.20
2017-09-08T09:19:50.326Z,3.40
2017-09-08T09:22:16.979Z,3.40
2017-09-08T09:24:43.614Z,2.50
2017-09-08T09:27:10.240Z,3.07
2017-09-08T09:29:36.879Z,3.30
2017-09-08T09:32:03.519Z,2.70
2017-09-08T09:34:30.152Z,3.10
2017-09-08T09:36:56.755Z,2.70
2017-09-08T09:39:23.387Z,2.10
2017-09-08T09:41:50.017Z,2.93
2017-09-08T09:44:16.643Z,3.63
2017-09-08T09:46:43.266Z,2.30
2017-09-08T09:49:09.875Z,2.50
2017-09-08T09:51:36.495Z,2.30
2017-09-08T09:54:03.128Z,3.10
2017-09-08T09:56:29.760Z,3.47
2017-09-08T09:58:56.386Z,2.17
2017-09-08T10:01:23.019Z,2.83
2017-09-08T10:03:49.678Z,3.40
2017-09-08T10:06:16.305Z,3.40
2017-09-08T10:08:42.933Z,2.53
2017-09-08T10:11:09.581Z,2.20
2017-09-08T10:13:36.187Z,2.90
2017-09-08T10:16:02.820Z,2.73
2017-09-08T10:18:29.457Z,2.23
2017-09-08T10:20:56.084Z,2.70
2017-09-08T10:23:22.690Z,3.17
2017-09-08T10:25:49.336Z,2.80
2017-09-08T10:28:15.959Z,3.47
2017-09-08T10:30:42.594Z,2.10
2017-09-08T10:33:09.229Z,2.67
2017-09-08T10:35:35.853Z,2.87
2017-09-08T10:38:02.489Z,2.20
2017-09-08T10:40:29.111Z,3.10
2017-09-08T10:42:55.750Z,2.30
2017-09-08T10:45:22.376Z,2.10
2017-09-08T10:47:49.041Z,3.13
2017-09-08T10:50:15.660Z,3.40
2017-09-08T10:52:42.286Z,3.47
2017-09-08T10:55:08.899Z,3.47
2017-09-08T10:57:35.539Z,3.90
2017-09-08T11:00:02.187Z,3.43
2017-09-08T11:02:28.819Z,4.10
2017-09-08T11:04:55.426Z,4.40
2017-09-08T11:07:22.055Z,4.43
2017-09-08T11:09:48.676Z,4.80
2017-09-08T11:12:15.344Z,5.37
2017-09-08T11:14:41.968Z,4.20
2017-09-08T11:17:08.601Z,5.50
2017-09-08T11:19:35.230Z,5.73
2017-09-08T11:22:01.859Z,5.40
2017-09-08T11:24:28.483Z,5.90
2017-09-08T11:26:55.111Z,6.87
2017-09-08T11:29:21.760Z,5.77
2017-09-08T11:31:48.396Z,6.63
2017-09-08T11:34:20.882Z,5.87
2017-09-08T11:36:53.392Z,7.37
2017-09-08T11:39:20.003Z,7.20
2017-09-08T11:41:46.657Z,5.77
2017-09-08T11:44:13.266Z,6.60
2017-09-08T11:46:39.902Z,5.87
2017-09-08T11:49:06.506Z,5.03
2017-09-08T11:51:33.142Z,5.53
2017-09-08T11:53:59.759Z,5.73
2017-09-08T11:56:30.678Z,6.10
2017-09-08T11:58:57.299Z,6.53
2017-09-08T12:01:23.901Z,5.80
2017-09-08T12:03:50.557Z,6.07
2017-09-08T12:06:17.175Z,5.33
2017-09-08T12:08:43.795Z,6.27
2017-09-08T12:11:10.432Z,4.50
2017-09-08T12:13:38.008Z,6.03
2017-09-08T12:16:04.615Z,4.67
2017-09-08T12:18:31.239Z,4.30
2017-09-08T12:20:57.962Z,5.07
2017-09-08T12:23:24.584Z,5.00
2017-09-08T12:25:51.195Z,4.93
2017-09-08T12:28:17.819Z,3.37
2017-09-08T12:30:44.480Z,3.90
2017-09-08T12:33:11.090Z,4.57
2017-09-08T12:35:37.709Z,4.10
2017-09-08T12:38:04.337Z,4.03
2017-09-08T12:40:30.948Z,4.83
2017-09-08T12:42:57.559Z,3.30
2017-09-08T12:45:24.190Z,3.50
2017-09-08T12:47:50.823Z,3.30
2017-09-08T12:50:17.460Z,4.13
2017-09-08T12:52:44.117Z,4.20
2017-09-08T12:55:10.730Z,3.20
2017-09-08T12:57:37.400Z,3.30
2017-09-08T13:00:04.007Z,2.90
2017-09-08T13:02:30.614Z,2.57
2017-09-08T13:04:57.272Z,2.90
2017-09-08T13:07:23.902Z,2.43
2017-09-08T13:09:50.548Z,2.33
2017-09-08T13:12:17.171Z,2.30
2017-09-08T13:14:43.816Z,2.10
2017-09-08T13:17:10.438Z,2.10
2017-09-08T13:19:37.880Z,2.33
2017-09-08T13:22:04.532Z,3.73
2017-09-08T13:24:31.166Z,2.60
2017-09-08T13:26:57.794Z,2.53
2017-09-08T13:29:24.418Z,3.10
2017-09-08T13:31:51.078Z,1.83
2017-09-08T13:34:17.737Z,2.73
2017-09-08T13:36:44.377Z,2.20
2017-09-08T13:39:10.999Z,1.60
2017-09-08T13:41:37.624Z,1.80
2017-09-08T13:44:04.240Z,1.67
2017-09-08T13:46:30.842Z,2.40
2017-09-08T13:48:57.486Z,1.43
2017-09-08T13:51:24.129Z,2.00
2017-09-08T13:53:50.753Z,1.53
2017-09-08T13:56:17.372Z,1.67
2017-09-08T13:58:44.010Z,1.97
2017-09-08T14:01:10.689Z,1.80
2017-09-08T14:03:37.309Z,1.90
2017-09-08T14:06:03.942Z,1.50
2017-09-08T14:08:30.575Z,1.20
2017-09-08T14:10:57.238Z,1.47
2017-09-08T14:13:23.853Z,1.50
2017-09-08T14:15:50.487Z,1.20
2017-09-08T14:18:17.133Z,1.43
2017-09-08T14:20:43.740Z,1.30
2017-09-08T14:23:10.360Z,1.30
2017-09-08T14:25:37.021Z,1.60
2017-09-08T14:28:03.623Z,1.70
2017-09-08T14:30:30.267Z,1.50
2017-09-08T14:32:56.915Z,1.17
2017-09-08T14:35:23.537Z,1.37
2017-09-08T14:37:50.159Z,1.83
2017-09-08T14:40:16.792Z,2.00
2017-09-08T14:42:43.459Z,2.23
2017-09-08T14:45:10.060Z,2.03
2017-09-08T14:47:36.700Z,2.30
2017-09-08T14:50:03.328Z,2.30
2017-09-08T14:52:29.967Z,2.53
2017-09-08T14:54:56.587Z,2.67
2017-09-08T14:57:23.231Z,2.07
2017-09-08T14:59:49.871Z,2.83
2017-09-08T15:02:16.473Z,2.40
2017-09-08T15:04:43.101Z,2.30
2017-09-08T15:07:09.720Z,2.20
2017-09-08T15:09:36.346Z,2.30
2017-09-08T15:12:02.988Z,2.67
2017-09-08T15:14:29.634Z,2.00
2017-09-08T15:16:56.255Z,2.23
2017-09-08T15:19:22.888Z,2.27
2017-09-08T15:21:49.526Z,1.90
2017-09-08T15:24:16.170Z,2.03
2017-09-08T15:26:42.815Z,1.70
2017-09-08T15:29:09.454Z,1.70
2017-09-08T15:31:36.069Z,2.33
2017-09-08T15:34:02.696Z,2.03
2017-09-08T15:36:29.308Z,2.20
2017-09-08T15:38:55.940Z,1.67
2017-09-08T15:41:23.444Z,2.10
2017-09-08T15:43:50.079Z,1.83
2017-09-08T15:46:16.700Z,1.93
2017-09-08T15:48:43.338Z,3.03
2017-09-08T15:51:09.973Z,1.70
2017-09-08T15:53:36.607Z,1.57
2017-09-08T15:56:03.250Z,1.70
2017-09-08T15:58:29.881Z,1.67
2017-09-08T16:00:56.522Z,1.60
2017-09-08T16:03:23.150Z,1.70
2017-09-08T16:05:52.574Z,1.30
2017-09-08T16:08:19.903Z,1.60
2017-09-08T16:10:46.542Z,1.60
2017-09-08T16:13:13.167Z,1.50
2017-09-08T16:15:39.815Z,1.47
2017-09-08T16:18:06.499Z,1.40
2017-09-08T16:20:33.150Z,1.50
2017-09-08T16:22:59.801Z,1.70
2017-09-08T16:25:26.413Z,1.23
2017-09-08T16:27:53.067Z,1.20
2017-09-08T16:30:19.700Z,2.20
2017-09-08T16:32:46.335Z,1.67
2017-09-08T16:35:12.996Z,1.00
2017-09-08T16:37:39.620Z,1.47
2017-09-08T16:40:06.257Z,1.63
2017-09-08T16:42:32.891Z,0.80
2017-09-08T16:44:59.526Z,1.20
2017-09-08T16:47:26.152Z,1.23
2017-09-08T16:49:52.779Z,1.10
2017-09-08T16:52:19.428Z,1.43
2017-09-08T16:54:46.060Z,1.40
2017-09-08T16:57:12.683Z,1.10
2017-09-08T16:59:39.348Z,1.20
2017-09-08T17:02:05.976Z,1.17
2017-09-08T17:04:32.632Z,1.97
2017-09-08T17:06:59.255Z,1.63
2017-09-08T17:09:26.517Z,2.17
2017-09-08T17:11:53.183Z,2.00
2017-09-08T17:14:19.815Z,2.73
2017-09-08T17:16:46.423Z,2.57
2017-09-08T17:19:13.044Z,2.77
2017-09-08T17:21:39.669Z,2.30
2017-09-08T17:24:06.290Z,3.07
2017-09-08T17:26:32.929Z,3.23
2017-09-08T17:28:59.534Z,2.97
2017-09-08T17:31:26.250Z,2.93
2017-09-08T17:33:52.857Z,3.30
2017-09-08T17:36:19.527Z,2.47
2017-09-08T17:38:46.135Z,3.13
2017-09-08T17:41:12.776Z,2.97
2017-09-08T17:43:39.419Z,2.90
2017-09-08T17:46:06.048Z,3.80
2017-09-08T17:48:33.015Z,3.20
2017-09-08T17:50:59.655Z,3.73
2017-09-08T17:53:26.262Z,3.40
2017-09-08T17:55:52.886Z,2.30
2017-09-08T17:58:19.539Z,3.60
2017-09-08T18:00:46.235Z,3.20
2017-09-08T18:03:12.844Z,3.30
2017-09-08T18:05:39.468Z,2.90
2017-09-08T18:08:06.131Z,2.43
2017-09-08T18:10:32.769Z,2.70
2017-09-08T18:12:59.401Z,2.60
2017-09-08T18:15:26.061Z,2.93
2017-09-08T18:17:52.659Z,3.33
2017-09-08T18:20:19.309Z,3.60
2017-09-08T18:22:45.938Z,2.90
2017-09-08T18:25:12.602Z,3.00
2017-09-08T18:27:39.228Z,3.20
2017-09-08T18:30:05.851Z,3.33
2017-09-08T18:32:32.494Z,3.57
2017-09-08T18:34:59.118Z,4.90
2017-09-08T18:37:25.731Z,3.73
2017-09-08T18:39:52.363Z,3.53
2017-09-08T18:42:19.034Z,4.77
2017-09-08T18:44:45.667Z,3.63
2017-09-08T18:47:12.270Z,3.83
2017-09-08T18:49:38.915Z,3.50
2017-09-08T18:52:05.531Z,3.33
2017-09-08T18:54:32.179Z,3.43
2017-09-08T18:56:58.821Z,3.70
2017-09-08T18:59:25.440Z,4.47
2017-09-08T19:01:52.047Z,4.03
2017-09-08T19:04:18.695Z,4.87
2017-09-08T19:06:45.351Z,4.70
2017-09-08T19:09:11.969Z,3.43
2017-09-08T19:11:38.621Z,5.10
2017-09-08T19:14:05.269Z,4.93
2017-09-08T19:16:31.944Z,3.80
2017-09-08T19:18:58.603Z,4.10
2017-09-08T19:21:25.253Z,4.77
2017-09-08T19:23:51.874Z,3.60
2017-09-08T19:26:18.516Z,3.90
2017-09-08T19:28:45.139Z,3.87
2017-09-08T19:31:11.790Z,3.50
2017-09-08T19:33:38.434Z,4.60
2017-09-08T19:36:05.094Z,5.43
2017-09-08T19:38:31.723Z,3.77
2017-09-08T19:40:58.383Z,3.60
2017-09-08T19:43:25.016Z,3.50
2017-09-08T19:45:51.630Z,3.60
2017-09-08T19:48:18.280Z,4.37
2017-09-08T19:50:44.902Z,3.83
2017-09-08T19:53:11.534Z,5.10
2017-09-08T19:55:38.148Z,4.83
2017-09-08T19:58:04.772Z,5.30
2017-09-08T20:00:31.423Z,6.47
2017-09-08T20:02:58.040Z,5.37
2017-09-08T20:05:24.689Z,5.43
2017-09-08T20:07:51.313Z,5.40
2017-09-08T20:10:18.342Z,5.10
2017-09-08T20:12:44.972Z,6.27
2017-09-08T20:15:11.615Z,4.60
2017-09-08T20:17:38.251Z,5.33
2017-09-08T20:20:04.872Z,5.37
2017-09-08T20:22:31.528Z,4.60
2017-09-08T20:24:58.159Z,5.40
2017-09-08T20:27:24.776Z,6.03
2017-09-08T20:29:51.426Z,5.33
2017-09-08T20:32:18.079Z,5.73
2017-09-08T20:34:44.710Z,6.60
2017-09-08T20:37:11.355Z,6.23
2017-09-08T20:39:38.032Z,8.90
2017-09-08T20:42:04.659Z,9.30
2017-09-08T20:44:31.284Z,7.23
2017-09-08T20:46:57.951Z,8.87
2017-09-08T20:49:24.580Z,6.67
2017-09-08T20:51:51.220Z,6.70
2017-09-08T20:54:17.837Z,5.73
2017-09-08T20:56:47.950Z,5.60
2017-09-08T20:59:14.574Z,6.90
2017-09-08T21:01:41.227Z,6.47
2017-09-08T21:04:07.872Z,5.83
2017-09-08T21:06:34.485Z,6.10
2017-09-08T21:09:01.132Z,6.07
2017-09-08T21:11:27.788Z,6.80
2017-09-08T21:13:54.399Z,6.57
2017-09-08T21:16:21.400Z,5.23
2017-09-08T21:18:48.448Z,5.90
2017-09-08T21:21:15.081Z,4.90
2017-09-08T21:23:41.721Z,4.80
2017-09-08T21:26:08.368Z,4.60
2017-09-08T21:28:34.982Z,4.73
2017-09-08T21:31:01.680Z,4.50
2017-09-08T21:33:28.305Z,4.97
2017-09-08T21:35:54.918Z,4.20
2017-09-08T21:38:21.579Z,3.57
2017-09-08T21:40:48.230Z,4.50
2017-09-08T21:43:14.871Z,3.80
2017-09-08T21:45:41.514Z,3.53
2017-09-08T21:48:08.134Z,3.57
2017-09-08T21:50:34.767Z,3.90
2017-09-08T21:53:01.383Z,3.60
2017-09-08T21:55:28.031Z,3.40
2017-09-08T21:57:54.658Z,3.87
2017-09-08T22:00:21.297Z,3.77
2017-09-08T22:02:47.929Z,3.10
2017-09-08T22:05:14.579Z,3.37
2017-09-08T22:07:41.232Z,3.90
2017-09-08T22:10:07.898Z,3.30
2017-09-08T22:12:34.505Z,2.90
2017-09-08T22:15:01.148Z,3.63
2017-09-08T22:17:27.769Z,4.00
2017-09-08T22:19:54.410Z,3.60
2017-09-08T22:22:21.037Z,3.60
2017-09-08T22:24:47.651Z,3.40
2017-09-08T22:27:14.306Z,3.87
2017-09-08T22:29:40.927Z,5.90
2017-09-08T22:32:07.546Z,4.80
2017-09-08T22:34:34.162Z,4.57
2017-09-08T22:37:00.802Z,4.80
2017-09-08T22:39:27.428Z,5.27
2017-09-08T22:41:54.058Z,5.80
2017-09-08T22:44:20.708Z,5.00
2017-09-08T22:46:47.360Z,5.87
2017-09-08T22:49:14.002Z,5.00
2017-09-08T22:51:40.627Z,5.50
2017-09-08T22:54:07.271Z,5.77
2017-09-08T22:56:33.899Z,5.10
2017-09-08T22:59:00.544Z,4.73
2017-09-08T23:01:27.186Z,5.43
2017-09-08T23:03:53.828Z,5.40
2017-09-08T23:06:20.480Z,5.57
2017-09-08T23:08:47.122Z,5.00
2017-09-08T23:11:13.800Z,5.53
2017-09-08T23:13:40.420Z,5.50
2017-09-08T23:16:07.050Z,4.73
2017-09-08T23:18:33.697Z,4.80
2017-09-08T23:21:00.348Z,3.50
2017-09-08T23:23:26.980Z,6.97
2017-09-08T23:25:53.593Z,6.93
2017-09-08T23:28:20.215Z,7.27
2017-09-08T23:30:46.875Z,6.97
2017-09-08T23:33:13.491Z,8.60
2017-09-08T23:35:40.211Z,8.17
2017-09-08T23:38:06.831Z,7.40
2017-09-08T23:40:33.464Z,6.50
2017-09-08T23:43:00.102Z,5.20
2017-09-08T23:45:26.731Z,5.57
2017-09-08T23:47:53.377Z,4.67
2017-09-08T23:50:20.018Z,3.47
2017-09-08T23:52:46.661Z,3.97
2017-09-08T23:55:13.292Z,3.90
2017-09-08T23:57:39.927Z,3.90
